createdAt,value
2018-11-03T00:00:04.730Z,100752.57
2018-11-03T00:00:35.838Z,100753.83
2018-11-03T00:01:06.967Z,100756.88
2018-11-03T00:01:38.124Z,100754.63
2018-11-03T00:02:09.242Z,100757.67
2018-11-03T00:02:40.402Z,100752.94
2018-11-03T00:03:11.606Z,100752.84
2018-11-03T00:03:42.740Z,100753.69
2018-11-03T00:04:13.883Z,100755.89
2018-11-03T00:04:45.031Z,100751.84
2018-11-03T00:05:16.197Z,100749.59
2018-11-03T00:05:47.353Z,100756.53
2018-11-03T00:06:18.520Z,100752.97
2018-11-03T00:06:49.686Z,100751.66
2018-11-03T00:07:20.841Z,100762.11
2018-11-03T00:07:51.972Z,100753.77
2018-11-03T00:08:23.092Z,100755.07
2018-11-03T00:08:54.235Z,100755.45
2018-11-03T00:09:25.356Z,100754.50
2018-11-03T00:09:56.500Z,100755.77
2018-11-03T00:10:27.614Z,100750.94
2018-11-03T00:10:58.732Z,100753.56
2018-11-03T00:11:29.842Z,100744.85
2018-11-03T00:12:01.046Z,100751.92
2018-11-03T00:12:32.200Z,100744.06
2018-11-03T00:13:03.315Z,100750.62
2018-11-03T00:13:34.478Z,100740.63
2018-11-03T00:14:05.590Z,100741.58
2018-11-03T00:14:36.758Z,100742.47
2018-11-03T00:15:07.896Z,100739.05
2018-11-03T00:15:39.047Z,100744.36
2018-11-03T00:16:10.175Z,100737.89
2018-11-03T00:16:41.367Z,100742.72
2018-11-03T00:17:12.607Z,100738.36
2018-11-03T00:17:43.767Z,100739.72
2018-11-03T00:18:14.886Z,100737.98
2018-11-03T00:18:46.030Z,100743.28
2018-11-03T00:19:17.157Z,100737.19
2018-11-03T00:19:48.325Z,100736.34
2018-11-03T00:20:19.451Z,100736.41
2018-11-03T00:20:50.642Z,100738.64
2018-11-03T00:21:21.766Z,100743.47
2018-11-03T00:21:52.937Z,100736.49
2018-11-03T00:22:24.082Z,100740.84
2018-11-03T00:22:55.227Z,100737.33
2018-11-03T00:23:26.346Z,100740.38
2018-11-03T00:23:57.472Z,100735.60
2018-11-03T00:24:28.589Z,100739.95
2018-11-03T00:24:59.777Z,100736.87
2018-11-03T00:25:30.928Z,100736.87
2018-11-03T00:26:02.096Z,100737.72
2018-11-03T00:26:33.250Z,100735.60
2018-11-03T00:27:04.386Z,100733.91
2018-11-03T00:27:35.577Z,100738.70
2018-11-03T00:28:06.706Z,100735.60
2018-11-03T00:28:37.888Z,100736.91
2018-11-03T00:29:09.015Z,100733.87
2018-11-03T00:29:40.140Z,100732.56
2018-11-03T00:30:11.269Z,100728.66
2018-11-03T00:30:42.422Z,100733.41
2018-11-03T00:31:13.558Z,100730.72
2018-11-03T00:31:44.676Z,100729.84
2018-11-03T00:32:15.846Z,100728.53
2018-11-03T00:32:46.974Z,100728.09
2018-11-03T00:33:18.110Z,100729.45
2018-11-03T00:33:49.222Z,100730.35
2018-11-03T00:34:20.348Z,100730.35
2018-11-03T00:34:51.456Z,100729.94
2018-11-03T00:35:22.599Z,100731.72
2018-11-03T00:35:53.744Z,100728.67
2018-11-03T00:36:24.860Z,100726.56
2018-11-03T00:36:55.966Z,100726.62
2018-11-03T00:37:27.119Z,100728.49
2018-11-03T00:37:58.303Z,100722.82
2018-11-03T00:38:29.415Z,100728.49
2018-11-03T00:39:00.562Z,100728.06
2018-11-03T00:39:31.684Z,100721.93
2018-11-03T00:40:02.822Z,100721.93
2018-11-03T00:40:33.993Z,100724.55
2018-11-03T00:41:05.090Z,100724.59
2018-11-03T00:41:36.274Z,100719.87
2018-11-03T00:42:07.443Z,100718.56
2018-11-03T00:42:38.559Z,100722.49
2018-11-03T00:43:09.699Z,100718.98
2018-11-03T00:43:40.811Z,100722.02
2018-11-03T00:44:11.987Z,100718.94
2018-11-03T00:44:43.150Z,100722.91
2018-11-03T00:45:14.270Z,100714.63
2018-11-03T00:45:45.391Z,100716.39
2018-11-03T00:46:16.516Z,100722.91
2018-11-03T00:46:47.628Z,100715.05
2018-11-03T00:47:18.799Z,100714.16
2018-11-03T00:47:49.950Z,100716.35
2018-11-03T00:48:21.060Z,100718.56
2018-11-03T00:48:52.226Z,100715.45
2018-11-03T00:49:23.371Z,100713.25
2018-11-03T00:49:54.502Z,100711.44
2018-11-03T00:50:25.638Z,100716.69
2018-11-03T00:50:56.750Z,100714.89
2018-11-03T00:51:27.922Z,100708.76
2018-11-03T00:51:59.062Z,100710.06
2018-11-03T00:52:30.238Z,100711.38
2018-11-03T00:53:01.354Z,100712.19
2018-11-03T00:53:32.468Z,100709.17
2018-11-03T00:54:03.642Z,100709.17
2018-11-03T00:54:34.804Z,100708.76
2018-11-03T00:55:05.914Z,100707.92
2018-11-03T00:55:37.041Z,100708.81
2018-11-03T00:56:08.186Z,100700.52
2018-11-03T00:56:39.336Z,100704.92
2018-11-03T00:57:10.470Z,100705.86
2018-11-03T00:57:41.602Z,100705.91
2018-11-03T00:58:12.824Z,100706.33
2018-11-03T00:58:43.980Z,100707.64
2018-11-03T00:59:15.089Z,100701.09
2018-11-03T00:59:46.209Z,100701.50
2018-11-03T01:00:17.327Z,100702.34
2018-11-03T01:00:48.452Z,100704.55
2018-11-03T01:01:19.600Z,100704.55
2018-11-03T01:01:50.701Z,100703.23
2018-11-03T01:02:21.850Z,100704.14
2018-11-03T01:02:52.964Z,100703.66
2018-11-03T01:03:24.140Z,100699.73
2018-11-03T01:03:55.285Z,100705.38
2018-11-03T01:04:26.464Z,100705.77
2018-11-03T01:04:57.582Z,100699.59
2018-11-03T01:05:28.755Z,100703.94
2018-11-03T01:05:59.876Z,100702.62
2018-11-03T01:06:31.038Z,100706.98
2018-11-03T01:07:02.149Z,100707.44
2018-11-03T01:07:33.274Z,100701.30
2018-11-03T01:08:04.386Z,100703.92
2018-11-03T01:08:35.545Z,100704.73
2018-11-03T01:09:06.707Z,100698.17
2018-11-03T01:09:37.869Z,100703.00
2018-11-03T01:10:08.979Z,100704.41
2018-11-03T01:10:40.092Z,100703.47
2018-11-03T01:11:11.215Z,100698.73
2018-11-03T01:11:42.346Z,100697.00
2018-11-03T01:12:13.484Z,100693.96
2018-11-03T01:12:44.657Z,100696.59
2018-11-03T01:13:15.772Z,100695.78
2018-11-03T01:13:46.969Z,100701.92
2018-11-03T01:14:18.139Z,100697.09
2018-11-03T01:14:49.290Z,100699.62
2018-11-03T01:15:20.434Z,100695.22
2018-11-03T01:15:51.557Z,100698.17
2018-11-03T01:16:22.661Z,100697.23
2018-11-03T01:16:53.830Z,100694.55
2018-11-03T01:17:24.963Z,100694.46
2018-11-03T01:17:56.135Z,100701.77
2018-11-03T01:18:27.256Z,100698.20
2018-11-03T01:18:58.461Z,100699.98
2018-11-03T01:19:29.620Z,100701.75
2018-11-03T01:20:00.783Z,100700.08
2018-11-03T01:20:31.956Z,100695.30
2018-11-03T01:21:03.080Z,100697.97
2018-11-03T01:21:34.234Z,100697.13
2018-11-03T01:22:05.373Z,100701.06
2018-11-03T01:22:36.502Z,100698.86
2018-11-03T01:23:07.732Z,100691.31
2018-11-03T01:23:38.934Z,100696.05
2018-11-03T01:24:09.991Z,100696.94
2018-11-03T01:24:41.143Z,100701.24
2018-11-03T01:25:12.275Z,100699.03
2018-11-03T01:25:43.418Z,100691.48
2018-11-03T01:26:14.575Z,100693.55
2018-11-03T01:26:45.753Z,100692.64
2018-11-03T01:27:16.903Z,100693.02
2018-11-03T01:27:48.085Z,100693.76
2018-11-03T01:28:19.225Z,100695.38
2018-11-03T01:28:50.385Z,100695.70
2018-11-03T01:29:21.501Z,100696.17
2018-11-03T01:29:52.620Z,100691.92
2018-11-03T01:30:23.762Z,100698.63
2018-11-03T01:30:54.872Z,100693.39
2018-11-03T01:31:26.006Z,100694.70
2018-11-03T01:31:57.157Z,100696.48
2018-11-03T01:32:28.432Z,100695.12
2018-11-03T01:32:59.494Z,100693.00
2018-11-03T01:33:30.603Z,100693.85
2018-11-03T01:34:01.745Z,100694.22
2018-11-03T01:34:32.870Z,100693.28
2018-11-03T01:35:04.052Z,100696.27
2018-11-03T01:35:35.182Z,100692.69
2018-11-03T01:36:07.281Z,100691.28
2018-11-03T01:36:38.414Z,100699.06
2018-11-03T01:37:09.596Z,100699.48
2018-11-03T01:37:40.741Z,100693.33
2018-11-03T01:38:11.889Z,100698.63
2018-11-03T01:38:43.049Z,100693.86
2018-11-03T01:39:14.166Z,100689.97
2018-11-03T01:39:45.313Z,100694.44
2018-11-03T01:40:16.477Z,100695.84
2018-11-03T01:40:47.613Z,100693.70
2018-11-03T01:41:18.753Z,100694.22
2018-11-03T01:41:49.927Z,100687.70
2018-11-03T01:42:21.097Z,100688.19
2018-11-03T01:42:52.242Z,100692.54
2018-11-03T01:43:23.346Z,100698.69
2018-11-03T01:43:54.564Z,100693.80
2018-11-03T01:44:25.702Z,100696.84
2018-11-03T01:44:56.823Z,100696.43
2018-11-03T01:45:27.964Z,100689.91
2018-11-03T01:45:59.088Z,100693.48
2018-11-03T01:46:30.269Z,100692.65
2018-11-03T01:47:01.427Z,100690.53
2018-11-03T01:47:32.532Z,100693.16
2018-11-03T01:48:03.684Z,100695.78
2018-11-03T01:48:34.870Z,100693.17
2018-11-03T01:49:06.076Z,100690.16
2018-11-03T01:49:37.234Z,100692.37
2018-11-03T01:50:08.362Z,100693.79
2018-11-03T01:50:39.514Z,100693.42
2018-11-03T01:51:10.643Z,100693.89
2018-11-03T01:51:41.794Z,100692.16
2018-11-03T01:52:12.984Z,100695.25
2018-11-03T01:52:44.099Z,100695.67
2018-11-03T01:53:15.240Z,100691.79
2018-11-03T01:53:46.378Z,100690.98
2018-11-03T01:54:17.603Z,100698.81
2018-11-03T01:54:48.756Z,100699.28
2018-11-03T01:55:19.923Z,100693.09
2018-11-03T01:55:51.068Z,100695.19
2018-11-03T01:56:22.208Z,100696.83
2018-11-03T01:56:53.331Z,100693.73
2018-11-03T01:57:24.448Z,100699.36
2018-11-03T01:57:55.593Z,100696.73
2018-11-03T01:58:26.757Z,100697.67
2018-11-03T01:58:57.873Z,100699.36
2018-11-03T01:59:29.042Z,100697.67
2018-11-03T02:00:00.187Z,100701.61
2018-11-03T02:00:31.299Z,100698.56
2018-11-03T02:01:02.500Z,100698.62
2018-11-03T02:01:33.628Z,100700.45
2018-11-03T02:02:04.817Z,100701.81
2018-11-03T02:02:35.932Z,100696.14
2018-11-03T02:03:07.067Z,100698.81
2018-11-03T02:03:38.172Z,100694.09
2018-11-03T02:04:09.304Z,100695.41
2018-11-03T02:04:40.431Z,100697.65
2018-11-03T02:05:11.619Z,100702.05
2018-11-03T02:05:42.771Z,100699.38
2018-11-03T02:06:13.916Z,100699.81
2018-11-03T02:06:45.031Z,100702.00
2018-11-03T02:07:16.134Z,100701.63
2018-11-03T02:07:47.251Z,100692.88
2018-11-03T02:08:18.363Z,100699.01
2018-11-03T02:08:49.503Z,100702.06
2018-11-03T02:09:20.638Z,100698.59
2018-11-03T02:09:51.788Z,100697.75
2018-11-03T02:10:22.926Z,100699.58
2018-11-03T02:10:54.059Z,100699.59
2018-11-03T02:11:25.197Z,100700.52
2018-11-03T02:11:56.326Z,100701.84
2018-11-03T02:12:27.434Z,100701.45
2018-11-03T02:12:58.618Z,100698.41
2018-11-03T02:13:29.732Z,100704.97
2018-11-03T02:14:00.855Z,100698.46
2018-11-03T02:14:31.991Z,100697.20
2018-11-03T02:15:03.119Z,100699.41
2018-11-03T02:15:34.278Z,100697.63
2018-11-03T02:16:05.394Z,100698.52
2018-11-03T02:16:36.532Z,100704.18
2018-11-03T02:17:07.687Z,100699.32
2018-11-03T02:17:38.893Z,100697.16
2018-11-03T02:18:10.031Z,100697.15
2018-11-03T02:18:41.136Z,100697.57
2018-11-03T02:19:12.242Z,100697.98
2018-11-03T02:19:43.395Z,100700.14
2018-11-03T02:20:14.516Z,100698.41
2018-11-03T02:20:45.661Z,100701.03
2018-11-03T02:21:16.772Z,100703.66
2018-11-03T02:21:47.879Z,100697.11
2018-11-03T02:22:19.000Z,100694.95
2018-11-03T02:22:50.137Z,100700.20
2018-11-03T02:23:21.281Z,100697.15
2018-11-03T02:23:52.432Z,100695.38
2018-11-03T02:24:23.551Z,100695.89
2018-11-03T02:24:54.691Z,100692.39
2018-11-03T02:25:25.832Z,100698.95
2018-11-03T02:25:56.982Z,100695.05
2018-11-03T02:26:28.133Z,100693.33
2018-11-03T02:26:59.302Z,100693.33
2018-11-03T02:27:30.407Z,100697.68
2018-11-03T02:28:01.543Z,100693.79
2018-11-03T02:28:32.692Z,100695.05
2018-11-03T02:29:03.852Z,100696.78
2018-11-03T02:29:35.029Z,100695.05
2018-11-03T02:30:06.175Z,100693.84
2018-11-03T02:30:37.333Z,100689.52
2018-11-03T02:31:08.467Z,100687.75
2018-11-03T02:31:39.667Z,100691.20
2018-11-03T02:32:10.790Z,100697.34
2018-11-03T02:32:41.936Z,100693.41
2018-11-03T02:33:13.073Z,100694.30
2018-11-03T02:33:44.187Z,100694.72
2018-11-03T02:34:15.324Z,100700.86
2018-11-03T02:34:46.452Z,100696.08
2018-11-03T02:35:17.610Z,100690.79
2018-11-03T02:35:48.742Z,100693.83
2018-11-03T02:36:19.892Z,100695.53
2018-11-03T02:36:51.032Z,100690.75
2018-11-03T02:37:22.148Z,100693.37
2018-11-03T02:37:53.259Z,100688.97
2018-11-03T02:38:24.386Z,100692.05
2018-11-03T02:38:55.498Z,100688.16
2018-11-03T02:39:27.267Z,100690.84
2018-11-03T02:39:58.397Z,100688.73
2018-11-03T02:40:29.534Z,100690.98
2018-11-03T02:41:00.746Z,100690.55
2018-11-03T02:41:31.847Z,100690.93
2018-11-03T02:42:02.992Z,100690.45
2018-11-03T02:42:34.119Z,100695.20
2018-11-03T02:43:05.239Z,100693.41
2018-11-03T02:43:36.365Z,100698.15
2018-11-03T02:44:07.536Z,100697.68
2018-11-03T02:44:38.715Z,100700.25
2018-11-03T02:45:09.839Z,100698.94
2018-11-03T02:45:40.956Z,100697.57
2018-11-03T02:46:12.088Z,100698.36
2018-11-03T02:46:43.290Z,100703.09
2018-11-03T02:47:14.448Z,100700.80
2018-11-03T02:47:45.608Z,100697.19
2018-11-03T02:48:17.291Z,100696.67
2018-11-03T02:48:48.459Z,100697.50
2018-11-03T02:49:19.587Z,100694.41
2018-11-03T02:49:50.745Z,100699.13
2018-11-03T02:50:21.847Z,100696.56
2018-11-03T02:50:52.987Z,100699.28
2018-11-03T02:51:24.110Z,100696.30
2018-11-03T02:51:55.252Z,100698.11
2018-11-03T02:52:26.506Z,100695.13
2018-11-03T02:52:57.634Z,100697.75
2018-11-03T02:53:28.770Z,100696.86
2018-11-03T02:53:59.885Z,100697.19
2018-11-03T02:54:31.025Z,100702.42
2018-11-03T02:55:02.205Z,100702.38
2018-11-03T02:55:33.346Z,100698.39
2018-11-03T02:56:04.457Z,100700.98
2018-11-03T02:56:35.607Z,100700.97
2018-11-03T02:57:06.731Z,100696.98
2018-11-03T02:57:37.943Z,100698.30
2018-11-03T02:58:09.095Z,100699.19
2018-11-03T02:58:40.215Z,100695.99
2018-11-03T02:59:11.318Z,100697.73
2018-11-03T02:59:42.457Z,100696.88
2018-11-03T03:00:13.667Z,100699.45
2018-11-03T03:00:44.783Z,100702.08
2018-11-03T03:01:15.903Z,100695.52
2018-11-03T03:01:47.021Z,100704.28
2018-11-03T03:02:18.174Z,100695.99
2018-11-03T03:02:49.343Z,100695.99
2018-11-03T03:03:20.462Z,100700.83
2018-11-03T03:03:51.611Z,100699.94
2018-11-03T03:04:22.754Z,100701.24
2018-11-03T03:04:53.885Z,100698.25
2018-11-03T03:05:25.048Z,100700.50
2018-11-03T03:05:56.245Z,100696.66
2018-11-03T03:06:27.369Z,100699.28
2018-11-03T03:06:58.502Z,100705.42
2018-11-03T03:07:29.655Z,100701.91
2018-11-03T03:08:00.809Z,100701.91
2018-11-03T03:08:31.946Z,100703.22
2018-11-03T03:09:03.060Z,100699.28
2018-11-03T03:09:34.182Z,100700.98
2018-11-03T03:10:05.302Z,100707.16
2018-11-03T03:10:36.446Z,100706.27
2018-11-03T03:11:07.569Z,100705.00
2018-11-03T03:11:38.713Z,100703.69
2018-11-03T03:12:09.850Z,100701.53
2018-11-03T03:12:41.043Z,100703.23
2018-11-03T03:13:12.167Z,100702.80
2018-11-03T03:13:43.300Z,100701.91
2018-11-03T03:14:14.419Z,100699.29
2018-11-03T03:14:45.526Z,100695.81
2018-11-03T03:15:16.672Z,100708.10
2018-11-03T03:15:47.780Z,100701.11
2018-11-03T03:16:18.909Z,100703.27
2018-11-03T03:16:50.039Z,100701.53
2018-11-03T03:17:21.189Z,100703.73
2018-11-03T03:17:52.346Z,100704.21
2018-11-03T03:18:23.459Z,100704.16
2018-11-03T03:18:54.616Z,100703.36
2018-11-03T03:19:25.741Z,100703.84
2018-11-03T03:19:56.881Z,100699.16
2018-11-03T03:20:28.004Z,100705.71
2018-11-03T03:20:59.132Z,100492.75
2018-11-03T03:21:30.256Z,100703.52
2018-11-03T03:22:01.371Z,100693.59
2018-11-03T03:22:32.555Z,100698.46
2018-11-03T03:23:03.735Z,100703.25
2018-11-03T03:23:34.842Z,100700.63
2018-11-03T03:24:05.964Z,100694.08
2018-11-03T03:24:37.074Z,100694.08
2018-11-03T03:25:08.227Z,100699.32
2018-11-03T03:25:39.362Z,100697.58
2018-11-03T03:26:10.486Z,100692.77
2018-11-03T03:26:41.621Z,100696.67
2018-11-03T03:27:12.796Z,100693.59
2018-11-03T03:27:43.955Z,100694.09
2018-11-03T03:28:15.095Z,100691.02
2018-11-03T03:28:46.271Z,100694.05
2018-11-03T03:29:17.471Z,100696.20
2018-11-03T03:29:48.664Z,100690.91
2018-11-03T03:30:19.790Z,100693.48
2018-11-03T03:30:50.936Z,100695.17
2018-11-03T03:31:22.046Z,100693.39
2018-11-03T03:31:53.150Z,100695.97
2018-11-03T03:32:24.332Z,100691.61
2018-11-03T03:32:55.516Z,100695.64
2018-11-03T03:33:26.636Z,100690.86
2018-11-03T03:33:57.759Z,100693.16
2018-11-03T03:34:28.888Z,100688.80
2018-11-03T03:35:00.063Z,100693.22
2018-11-03T03:35:31.201Z,100693.69
2018-11-03T03:36:02.336Z,100696.78
2018-11-03T03:36:33.503Z,100691.59
2018-11-03T03:37:04.706Z,100692.43
2018-11-03T03:37:35.797Z,100691.12
2018-11-03T03:38:06.924Z,100689.52
2018-11-03T03:38:38.123Z,100687.83
2018-11-03T03:39:09.275Z,100689.53
2018-11-03T03:39:40.401Z,100691.68
2018-11-03T03:40:11.530Z,100691.27
2018-11-03T03:40:42.666Z,100693.45
2018-11-03T03:41:13.788Z,100687.33
2018-11-03T03:41:44.918Z,100692.14
2018-11-03T03:42:16.036Z,100695.20
2018-11-03T03:42:47.204Z,100693.45
2018-11-03T03:43:18.361Z,100696.03
2018-11-03T03:43:49.555Z,100692.09
2018-11-03T03:44:20.684Z,100699.03
2018-11-03T03:44:51.809Z,100692.84
2018-11-03T03:45:22.967Z,100700.26
2018-11-03T03:45:54.101Z,100696.78
2018-11-03T03:46:25.215Z,100695.01
2018-11-03T03:46:56.349Z,100697.25
2018-11-03T03:47:27.487Z,100691.54
2018-11-03T03:47:58.658Z,100695.89
2018-11-03T03:48:29.783Z,100692.33
2018-11-03T03:49:01.002Z,100696.67
2018-11-03T03:49:32.149Z,100694.05
2018-11-03T03:50:03.263Z,100692.78
2018-11-03T03:50:34.413Z,100691.91
2018-11-03T03:51:05.533Z,100689.33
2018-11-03T03:51:36.645Z,100689.48
2018-11-03T03:52:07.811Z,100688.78
2018-11-03T03:52:38.929Z,100685.36
2018-11-03T03:53:10.106Z,100687.19
2018-11-03T03:53:41.235Z,100688.13
2018-11-03T03:54:12.394Z,100685.55
2018-11-03T03:54:43.561Z,100685.63
2018-11-03T03:55:14.670Z,100686.02
2018-11-03T03:55:45.806Z,100686.44
2018-11-03T03:56:16.934Z,100687.19
2018-11-03T03:56:48.031Z,100688.50
2018-11-03T03:57:19.154Z,100682.36
2018-11-03T03:57:50.263Z,100688.50
2018-11-03T03:58:21.447Z,100661.80
2018-11-03T03:58:52.554Z,100689.48
2018-11-03T03:59:23.661Z,100683.39
2018-11-03T03:59:54.814Z,100686.02
2018-11-03T04:00:25.920Z,100680.81
2018-11-03T04:00:57.033Z,100682.13
2018-11-03T04:01:28.164Z,100683.48
2018-11-03T04:01:59.303Z,100683.57
2018-11-03T04:02:30.439Z,100687.97
2018-11-03T04:03:01.557Z,100689.28
2018-11-03T04:03:32.709Z,100680.99
2018-11-03T04:04:03.843Z,100678.38
2018-11-03T04:04:34.979Z,100686.23
2018-11-03T04:05:06.100Z,100684.92
2018-11-03T04:05:37.236Z,100683.99
2018-11-03T04:06:08.368Z,100678.70
2018-11-03T04:06:39.487Z,100687.87
2018-11-03T04:07:10.634Z,100687.50
2018-11-03T04:07:41.835Z,100683.14
2018-11-03T04:08:12.960Z,100688.81
2018-11-03T04:08:44.108Z,100687.08
2018-11-03T04:09:15.219Z,100687.08
2018-11-03T04:09:46.356Z,100679.62
2018-11-03T04:10:17.498Z,100682.21
2018-11-03T04:10:48.650Z,100685.68
2018-11-03T04:11:19.818Z,100677.39
2018-11-03T04:11:50.918Z,100684.45
2018-11-03T04:12:22.045Z,100688.02
2018-11-03T04:12:53.190Z,100680.20
2018-11-03T04:13:24.372Z,100688.02
2018-11-03T04:13:55.553Z,100685.81
2018-11-03T04:14:26.647Z,100681.03
2018-11-03T04:14:57.763Z,100686.23
2018-11-03T04:15:28.934Z,100683.16
2018-11-03T04:16:00.071Z,100680.99
2018-11-03T04:16:31.219Z,100680.99
2018-11-03T04:17:02.343Z,100675.75
2018-11-03T04:17:33.474Z,100675.75
2018-11-03T04:18:04.619Z,100681.88
2018-11-03T04:18:35.799Z,100677.53
2018-11-03T04:19:06.912Z,100685.91
2018-11-03T04:19:38.075Z,100678.97
2018-11-03T04:20:09.271Z,100684.59
2018-11-03T04:20:40.401Z,100682.91
2018-11-03T04:21:11.532Z,100680.28
2018-11-03T04:21:42.668Z,100683.38
2018-11-03T04:22:13.776Z,100680.79
2018-11-03T04:22:44.899Z,100683.84
2018-11-03T04:23:16.655Z,100679.86
2018-11-03T04:23:47.775Z,100679.90
2018-11-03T04:24:18.902Z,100686.45
2018-11-03T04:24:50.062Z,100679.06
2018-11-03T04:25:21.186Z,100680.38
2018-11-03T04:25:52.340Z,100678.21
2018-11-03T04:26:23.452Z,100682.58
2018-11-03T04:26:54.607Z,100678.72
2018-11-03T04:27:25.727Z,100678.30
2018-11-03T04:27:56.842Z,100685.28
2018-11-03T04:28:27.997Z,100685.75
2018-11-03T04:28:59.112Z,100680.88
2018-11-03T04:29:30.234Z,100683.47
2018-11-03T04:30:01.371Z,100682.58
2018-11-03T04:30:32.530Z,100680.79
2018-11-03T04:31:03.712Z,100676.86
2018-11-03T04:31:35.899Z,100682.48
2018-11-03T04:32:07.033Z,100677.16
2018-11-03T04:32:38.260Z,100678.93
2018-11-03T04:33:09.409Z,100681.97
2018-11-03T04:33:40.550Z,100678.50
2018-11-03T04:34:11.691Z,100683.33
2018-11-03T04:34:42.855Z,100682.02
2018-11-03T04:35:13.989Z,100682.52
2018-11-03T04:35:45.102Z,100681.59
2018-11-03T04:36:16.255Z,100680.75
2018-11-03T04:36:47.394Z,100684.64
2018-11-03T04:37:18.507Z,100683.75
2018-11-03T04:37:49.676Z,100685.91
2018-11-03T04:38:20.828Z,100683.70
2018-11-03T04:38:52.008Z,100684.22
2018-11-03T04:39:23.153Z,100681.59
2018-11-03T04:39:54.266Z,100685.53
2018-11-03T04:40:25.395Z,100682.99
2018-11-03T04:40:56.506Z,100684.73
2018-11-03T04:41:31.554Z,100688.62
2018-11-03T04:42:02.686Z,100687.72
2018-11-03T04:42:33.800Z,100688.57
2018-11-03T04:43:04.957Z,100687.30
2018-11-03T04:43:36.135Z,100683.84
2018-11-03T04:44:07.264Z,100685.14
2018-11-03T04:44:38.390Z,100688.19
2018-11-03T04:45:09.550Z,100686.03
2018-11-03T04:45:40.752Z,100687.34
2018-11-03T04:46:11.776Z,100691.70
2018-11-03T04:46:42.921Z,100686.84
2018-11-03T04:47:14.118Z,100688.57
2018-11-03T04:47:45.308Z,100690.72
2018-11-03T04:48:16.423Z,100683.33
2018-11-03T04:48:47.544Z,100681.59
2018-11-03T04:49:18.706Z,100689.84
2018-11-03T04:49:49.817Z,100687.68
2018-11-03T04:50:20.937Z,100688.57
2018-11-03T04:50:52.093Z,100688.99
2018-11-03T04:51:23.233Z,100691.16
2018-11-03T04:51:54.379Z,100690.72
2018-11-03T04:52:25.630Z,100686.84
2018-11-03T04:52:56.751Z,100692.08
2018-11-03T04:53:27.883Z,100693.86
2018-11-03T04:53:59.018Z,100690.86
2018-11-03T04:54:30.244Z,100691.75
2018-11-03T04:55:01.439Z,100689.13
2018-11-03T04:55:32.558Z,100690.44
2018-11-03T04:56:03.675Z,100695.20
2018-11-03T04:56:34.819Z,100689.08
2018-11-03T04:57:05.943Z,100698.64
2018-11-03T04:57:37.053Z,100697.75
2018-11-03T04:58:08.174Z,100698.59
2018-11-03T04:58:39.309Z,100698.68
2018-11-03T04:59:10.453Z,100697.83
2018-11-03T04:59:41.617Z,100696.09
2018-11-03T05:00:12.756Z,100699.19
2018-11-03T05:00:43.915Z,100700.12
2018-11-03T05:01:15.052Z,100703.25
2018-11-03T05:01:46.181Z,100701.60
2018-11-03T05:02:17.314Z,100698.47
2018-11-03T05:02:48.462Z,100704.09
2018-11-03T05:03:19.643Z,100700.16
2018-11-03T05:03:50.876Z,100704.94
2018-11-03T05:04:21.994Z,100704.02
2018-11-03T05:04:53.143Z,100707.47
2018-11-03T05:05:24.306Z,100700.50
2018-11-03T05:05:55.446Z,100705.74
2018-11-03T05:06:26.582Z,100707.47
2018-11-03T05:06:57.701Z,100710.05
2018-11-03T05:07:28.831Z,100708.73
2018-11-03T05:07:59.942Z,100708.31
2018-11-03T05:08:31.096Z,100712.67
2018-11-03T05:09:02.230Z,100710.98
2018-11-03T05:09:33.354Z,100711.06
2018-11-03T05:10:04.604Z,100715.47
2018-11-03T05:10:35.713Z,100709.84
2018-11-03T05:11:07.500Z,100717.75
2018-11-03T05:11:38.646Z,100715.17
2018-11-03T05:12:09.787Z,100712.13
2018-11-03T05:12:40.906Z,100714.78
2018-11-03T05:13:12.067Z,100716.10
2018-11-03T05:13:43.232Z,100717.45
2018-11-03T05:14:14.401Z,100714.83
2018-11-03T05:14:45.528Z,100712.63
2018-11-03T05:15:16.660Z,100719.10
2018-11-03T05:15:47.806Z,100719.10
2018-11-03T05:16:18.938Z,100714.36
2018-11-03T05:16:50.079Z,100720.02
2018-11-03T05:17:21.284Z,100714.78
2018-11-03T05:17:52.403Z,100718.25
2018-11-03T05:18:23.544Z,100716.91
2018-11-03T05:18:54.720Z,100723.03
2018-11-03T05:19:25.876Z,100720.91
2018-11-03T05:19:57.019Z,100714.36
2018-11-03T05:20:28.165Z,100720.88
2018-11-03T05:20:59.319Z,100714.36
2018-11-03T05:21:30.491Z,100713.86
2018-11-03T05:22:01.646Z,100718.63
2018-11-03T05:22:32.777Z,100716.39
2018-11-03T05:23:03.916Z,100721.21
2018-11-03T05:23:35.103Z,100718.98
2018-11-03T05:24:06.276Z,100719.86
2018-11-03T05:24:37.405Z,100723.75
2018-11-03T05:25:08.528Z,100724.17
2018-11-03T05:25:39.670Z,100720.20
2018-11-03T05:26:10.883Z,100724.98
2018-11-03T05:26:41.977Z,100727.64
2018-11-03T05:27:13.135Z,100726.88
2018-11-03T05:27:44.287Z,100723.45
2018-11-03T05:28:15.406Z,100720.45
2018-11-03T05:28:46.578Z,100723.45
2018-11-03T05:29:17.757Z,100725.61
2018-11-03T05:29:48.857Z,100723.84
2018-11-03T05:30:19.992Z,100722.10
2018-11-03T05:30:51.120Z,100718.16
2018-11-03T05:31:22.323Z,100729.08
2018-11-03T05:31:53.444Z,100723.83
2018-11-03T05:32:24.630Z,100724.22
2018-11-03T05:32:55.747Z,100723.75
2018-11-03T05:33:26.855Z,100729.84
2018-11-03T05:33:57.995Z,100729.76
2018-11-03T05:34:29.123Z,100725.78
2018-11-03T05:35:00.263Z,100730.55
2018-11-03T05:35:31.409Z,100728.31
2018-11-03T05:36:02.554Z,100728.73
2018-11-03T05:36:33.662Z,100730.42
2018-11-03T05:37:04.770Z,100730.80
2018-11-03T05:37:35.945Z,100733.00
2018-11-03T05:38:07.082Z,100729.97
2018-11-03T05:38:38.217Z,100729.54
2018-11-03T05:39:09.377Z,100730.47
2018-11-03T05:39:40.506Z,100734.45
2018-11-03T05:40:11.632Z,100732.25
2018-11-03T05:40:42.752Z,100733.14
2018-11-03T05:41:13.974Z,100737.07
2018-11-03T05:41:45.098Z,100732.67
2018-11-03T05:42:16.266Z,100736.13
2018-11-03T05:42:47.384Z,100734.32
2018-11-03T05:43:18.541Z,100735.63
2018-11-03T05:43:49.675Z,100735.59
2018-11-03T05:44:20.811Z,100737.36
2018-11-03T05:44:51.938Z,100733.00
2018-11-03T05:45:23.084Z,100735.63
2018-11-03T05:45:54.209Z,100739.52
2018-11-03T05:46:25.416Z,100739.56
2018-11-03T05:46:56.578Z,100733.05
2018-11-03T05:47:27.706Z,100740.45
2018-11-03T05:47:58.824Z,100734.32
2018-11-03T05:48:29.988Z,100734.32
2018-11-03T05:49:01.096Z,100736.90
2018-11-03T05:49:32.251Z,100736.43
2018-11-03T05:50:03.367Z,100740.33
2018-11-03T05:50:34.563Z,100738.54
2018-11-03T05:51:05.713Z,100743.27
2018-11-03T05:51:36.827Z,100748.05
2018-11-03T05:52:07.994Z,100744.96
2018-11-03T05:52:39.113Z,100746.23
2018-11-03T05:53:10.248Z,100749.70
2018-11-03T05:53:41.393Z,100746.99
2018-11-03T05:54:12.509Z,100743.86
2018-11-03T05:54:43.637Z,100749.47
2018-11-03T05:55:14.814Z,100745.91